createdAt,value
2018-12-16T00:00:52.886Z,127.15
2018-12-16T00:03:50.266Z,130.85
2018-12-16T00:06:46.980Z,137.62
2018-12-16T00:09:43.795Z,132.60
2018-12-16T00:12:41.144Z,134.95
2018-12-16T00:15:37.602Z,130.50
2018-12-16T00:18:33.821Z,128.87
2018-12-16T00:21:30.210Z,131.25
2018-12-16T00:24:30.273Z,134.45
2018-12-16T00:27:26.149Z,131.72
2018-12-16T00:30:22.877Z,135.88
2018-12-16T00:33:19.310Z,133.60
2018-12-16T00:36:15.681Z,138.45
2018-12-16T00:39:12.855Z,132.97
2018-12-16T00:42:09.380Z,135.30
2018-12-16T00:45:06.273Z,119.65
2018-12-16T00:48:03.436Z,135.97
2018-12-16T00:50:59.975Z,131.60
2018-12-16T00:53:56.605Z,127.50
2018-12-16T00:56:53.466Z,137.07
2018-12-16T00:59:50.174Z,135.68
2018-12-16T01:02:49.580Z,140.43
2018-12-16T01:05:45.893Z,131.20
2018-12-16T01:08:42.325Z,139.85
2018-12-16T01:11:39.382Z,135.25
2018-12-16T01:14:35.920Z,138.80
2018-12-16T01:17:33.010Z,138.57
2018-12-16T01:20:29.468Z,145.50
2018-12-16T01:23:25.639Z,141.73
2018-12-16T01:26:22.282Z,136.15
2018-12-16T01:29:18.475Z,137.47
2018-12-16T01:32:14.517Z,149.05
2018-12-16T01:35:11.518Z,145.47
2018-12-16T01:38:08.442Z,145.80
2018-12-16T01:41:04.575Z,137.72
2018-12-16T01:44:00.777Z,149.45
2018-12-16T01:46:57.577Z,133.63
2018-12-16T01:49:54.517Z,138.68
2018-12-16T01:52:51.023Z,136.22
2018-12-16T01:55:47.814Z,129.23
2018-12-16T01:58:44.363Z,120.02
2018-12-16T02:01:41.900Z,128.57
2018-12-16T02:04:43.015Z,147.00
2018-12-16T02:07:40.200Z,144.50
2018-12-16T02:10:37.160Z,137.40
2018-12-16T02:13:36.110Z,132.43
2018-12-16T02:16:32.723Z,140.68
2018-12-16T02:19:30.518Z,142.03
2018-12-16T02:22:45.213Z,137.28
2018-12-16T02:25:33.583Z,129.90
2018-12-16T02:28:29.877Z,137.30
2018-12-16T02:31:25.977Z,136.72
2018-12-16T02:34:22.411Z,131.18
2018-12-16T02:37:18.426Z,135.85
2018-12-16T02:40:14.867Z,157.12
2018-12-16T02:43:12.054Z,168.95
2018-12-16T02:46:08.478Z,139.30
2018-12-16T02:49:04.835Z,147.70
2018-12-16T02:52:01.620Z,135.10
2018-12-16T02:54:58.711Z,126.90
2018-12-16T02:57:55.377Z,165.35
2018-12-16T03:00:52.293Z,147.93
2018-12-16T03:03:48.229Z,148.13
2018-12-16T03:06:44.709Z,131.22
2018-12-16T03:09:41.494Z,148.68
2018-12-16T03:12:39.331Z,129.18
2018-12-16T03:15:36.239Z,132.57
2018-12-16T03:18:33.165Z,121.30
2018-12-16T03:21:30.387Z,127.80
2018-12-16T03:24:27.593Z,131.30
2018-12-16T03:27:23.889Z,122.17
2018-12-16T03:30:23.262Z,126.87
2018-12-16T03:33:17.463Z,126.80
2018-12-16T03:36:13.810Z,132.07
2018-12-16T03:39:11.374Z,128.50
2018-12-16T03:42:07.489Z,130.07
2018-12-16T03:45:04.122Z,132.18
2018-12-16T03:48:00.463Z,121.72
2018-12-16T03:50:57.738Z,114.05
2018-12-16T03:53:54.966Z,122.22
2018-12-16T03:56:51.821Z,127.27
2018-12-16T03:59:48.189Z,139.57
2018-12-16T04:02:44.638Z,119.25
2018-12-16T04:05:41.776Z,117.08
2018-12-16T04:08:39.394Z,123.75
2018-12-16T04:11:36.157Z,118.30
2018-12-16T04:14:32.504Z,112.57
2018-12-16T04:17:29.148Z,100.90
2018-12-16T04:20:25.671Z,104.97
2018-12-16T04:23:27.379Z,113.42
2018-12-16T04:26:19.161Z,108.05
2018-12-16T04:29:20.770Z,114.37
2018-12-16T04:32:16.938Z,107.15
2018-12-16T04:35:13.608Z,103.40
2018-12-16T04:38:13.407Z,106.10
2018-12-16T04:41:13.610Z,94.28
2018-12-16T04:44:12.981Z,97.90
2018-12-16T04:47:10.118Z,94.40
2018-12-16T04:50:12.268Z,104.03
2018-12-16T04:53:07.195Z,96.57
2018-12-16T04:56:03.786Z,116.10
2018-12-16T04:59:00.263Z,104.95
2018-12-16T05:01:56.118Z,92.62
2018-12-16T05:04:52.945Z,88.10
2018-12-16T05:07:49.662Z,90.28
2018-12-16T05:10:50.845Z,102.22
2018-12-16T05:13:51.982Z,91.20
2018-12-16T05:16:49.043Z,103.97
2018-12-16T05:19:45.674Z,93.37
2018-12-16T05:22:43.768Z,99.07
2018-12-16T05:25:39.870Z,88.37
2018-12-16T05:28:35.931Z,85.95
2018-12-16T05:31:32.376Z,88.55
2018-12-16T05:34:28.582Z,94.05
2018-12-16T05:50:46.331Z,103.17
2018-12-16T05:54:26.000Z,92.90
2018-12-16T06:02:07.205Z,100.18
2018-12-16T06:05:11.037Z,113.85
2018-12-16T06:08:05.567Z,97.22
2018-12-16T06:11:03.028Z,111.80
2018-12-16T06:14:02.001Z,108.03
2018-12-16T06:17:01.341Z,80.20
2018-12-16T06:19:58.314Z,89.87
2018-12-16T06:22:54.816Z,89.72
2018-12-16T06:25:51.138Z,84.77
2018-12-16T06:28:49.877Z,100.75
2018-12-16T06:31:48.968Z,99.45
2018-12-16T06:34:44.885Z,91.55
2018-12-16T06:37:45.532Z,78.52
2018-12-16T06:40:41.979Z,88.47
2018-12-16T06:43:41.169Z,88.45
2018-12-16T06:46:39.656Z,88.25
2018-12-16T06:49:45.800Z,81.92
2018-12-16T06:52:43.992Z,92.72
2018-12-16T06:55:45.646Z,96.47
2018-12-16T06:58:49.196Z,98.10
2018-12-16T07:01:42.523Z,96.17
2018-12-16T07:04:45.203Z,116.95
2018-12-16T07:07:43.180Z,99.03
2018-12-16T07:10:44.222Z,93.52
2018-12-16T07:13:43.217Z,87.08
2018-12-16T07:16:41.491Z,91.42
2018-12-16T07:19:45.945Z,88.85
2018-12-16T07:22:47.120Z,96.55
2018-12-16T07:25:50.716Z,88.07
2018-12-16T07:28:45.804Z,90.87
2018-12-16T07:31:49.949Z,85.38
2018-12-16T07:34:44.269Z,82.25
2018-12-16T07:37:41.148Z,91.72
2018-12-16T07:40:39.595Z,88.10
2018-12-16T07:43:39.311Z,111.45
2018-12-16T07:46:35.895Z,92.30
2018-12-16T07:49:33.224Z,105.78
2018-12-16T07:52:30.176Z,82.08
2018-12-16T07:55:26.303Z,99.72
2018-12-16T07:58:23.396Z,87.22
2018-12-16T08:01:19.213Z,84.15
2018-12-16T08:04:18.183Z,96.57
2018-12-16T08:07:14.918Z,87.57
2018-12-16T08:10:10.590Z,81.67
2018-12-16T08:13:08.217Z,80.05
2018-12-16T08:16:06.471Z,90.60
2018-12-16T08:19:06.952Z,90.90
2018-12-16T08:22:00.371Z,92.12
2018-12-16T08:24:56.557Z,93.65
2018-12-16T08:27:52.935Z,85.80
2018-12-16T08:30:52.202Z,98.67
2018-12-16T08:33:46.935Z,96.28
2018-12-16T08:36:44.401Z,105.03
2018-12-16T08:39:40.726Z,89.40
2018-12-16T08:42:39.431Z,88.25
2018-12-16T08:45:36.965Z,95.80
2018-12-16T08:48:35.063Z,90.85
2018-12-16T08:51:31.322Z,91.65
2018-12-16T08:54:30.023Z,86.40
2018-12-16T08:57:23.638Z,92.22
2018-12-16T09:00:21.828Z,100.40
2018-12-16T09:03:18.878Z,97.10
2018-12-16T09:06:15.009Z,98.47
2018-12-16T09:09:13.600Z,98.95
2018-12-16T09:12:10.824Z,86.47
2018-12-16T09:15:09.435Z,78.70
2018-12-16T09:18:08.329Z,86.97
2018-12-16T09:21:06.096Z,91.00
2018-12-16T09:24:02.762Z,101.65
2018-12-16T09:26:58.740Z,106.27
2018-12-16T09:29:54.918Z,98.25
2018-12-16T09:32:50.813Z,97.20
2018-12-16T09:35:47.772Z,96.12
2018-12-16T09:38:46.643Z,94.77
2018-12-16T09:41:42.794Z,88.55
2018-12-16T09:44:41.278Z,88.37
2018-12-16T09:47:38.207Z,87.37
2018-12-16T09:50:34.776Z,95.60
2018-12-16T09:53:30.588Z,93.85
2018-12-16T09:56:26.556Z,91.50
2018-12-16T09:59:29.808Z,94.03
2018-12-16T10:02:28.914Z,93.85
2018-12-16T10:05:28.047Z,98.65
2018-12-16T10:08:24.232Z,95.10
2018-12-16T10:11:20.012Z,84.97
2018-12-16T10:14:16.186Z,90.35
2018-12-16T10:17:14.068Z,87.22
2018-12-16T10:20:12.739Z,97.12
2018-12-16T10:23:09.362Z,89.47
2018-12-16T10:26:05.893Z,90.17
2018-12-16T10:29:02.658Z,91.12
2018-12-16T10:32:00.035Z,98.80
2018-12-16T10:34:58.422Z,97.65
2018-12-16T10:37:55.183Z,97.30
2018-12-16T10:40:51.219Z,97.33
2018-12-16T10:43:48.847Z,111.15
2018-12-16T10:46:44.935Z,97.45
2018-12-16T10:50:23.404Z,103.10
2018-12-16T10:53:20.937Z,100.38
2018-12-16T10:56:17.452Z,111.52
2018-12-16T10:59:14.036Z,109.17
2018-12-16T11:02:10.211Z,105.95
2018-12-16T11:05:06.193Z,113.35
2018-12-16T11:08:03.358Z,133.75
2018-12-16T11:11:01.098Z,126.05
2018-12-16T11:13:57.324Z,117.97
2018-12-16T11:16:54.199Z,130.05
2018-12-16T11:20:01.393Z,98.80
2018-12-16T11:22:59.051Z,109.97
2018-12-16T11:25:58.879Z,111.72
2018-12-16T11:28:56.012Z,107.87
2018-12-16T11:31:52.359Z,107.97
2018-12-16T11:34:48.492Z,112.65
2018-12-16T11:37:49.251Z,99.97
2018-12-16T11:40:52.521Z,107.35
2018-12-16T11:43:57.778Z,121.15
2018-12-16T11:46:53.532Z,124.50
2018-12-16T11:49:54.454Z,112.12
2018-12-16T11:52:51.919Z,108.32
2018-12-16T11:55:48.620Z,122.82
2018-12-16T11:58:45.566Z,107.95
2018-12-16T12:01:41.636Z,100.47
2018-12-16T12:04:38.479Z,114.95
2018-12-16T12:07:34.712Z,111.35
2018-12-16T12:10:33.544Z,122.47
2018-12-16T12:13:29.271Z,124.65
2018-12-16T12:16:25.387Z,115.50
2018-12-16T12:19:21.545Z,133.70
2018-12-16T12:22:19.441Z,129.32
2018-12-16T12:25:19.881Z,132.10
2018-12-16T12:28:14.556Z,135.20
2018-12-16T12:31:12.202Z,119.75
2018-12-16T12:34:08.124Z,121.62
2018-12-16T12:37:04.465Z,114.80
2018-12-16T12:40:00.923Z,117.53
2018-12-16T12:42:59.624Z,120.47
2018-12-16T12:45:56.530Z,120.82
2018-12-16T12:48:53.008Z,116.57
2018-12-16T12:51:49.965Z,118.15
2018-12-16T12:54:46.359Z,111.55
2018-12-16T12:57:42.113Z,123.85
2018-12-16T13:00:37.863Z,122.80
2018-12-16T13:03:34.581Z,106.15
2018-12-16T13:06:30.752Z,117.15
2018-12-16T13:09:28.438Z,120.53
